Time;durP1;ratioP1;P1;durP2;ratioP2;P2;SDS_P1;SDS_P2;PMS_P1;PMS_P2;Temp;Humidity;BMP_temperature;BMP_pressure;BME280_temperature;BME280_humidity;BME280_pressure;Samples;Min_cycle;Max_cycle;Signal;HPM_P1;HPM_P2
2022/12/18 00:01:27;;;;;;;;;;;-1.30;99.90;;;;;;5004765;28;19913;-78
2022/12/18 00:03:53;;;;;;;;;;;-1.30;99.90;;;;;;4993387;28;19910;-75
2022/12/18 00:06:19;;;;;;;;;;;-1.30;99.90;;;;;;5000842;28;19913;-76
2022/12/18 00:08:45;;;;;;;;;;;-1.40;99.90;;;;;;4999414;28;19988;-77
2022/12/18 00:11:12;;;;;;;;;;;-1.30;99.90;;;;;;5002207;28;19949;-77
2022/12/18 00:13:37;;;;;;;;;;;-1.40;99.90;;;;;;5000224;28;20000;-74
2022/12/18 00:16:04;;;;;;;;;;;-1.40;99.90;;;;;;4997440;28;19964;-76
2022/12/18 00:18:30;;;;;;;;;;;-1.40;99.90;;;;;;5001626;28;19967;-80
2022/12/18 00:20:58;;;;;;;;;;;-1.40;99.90;;;;;;5006173;28;19929;-74
2022/12/18 00:23:24;;;;;;;;;;;-1.50;99.90;;;;;;5003447;28;19917;-78
2022/12/18 00:25:49;;;;;;;;;;;-1.50;99.90;;;;;;4996245;28;19914;-76
2022/12/18 00:28:15;;;;;;;;;;;-1.60;99.90;;;;;;5007720;28;19909;-76
2022/12/18 00:30:40;;;;;;;;;;;-1.50;99.90;;;;;;5002759;28;19913;-76
2022/12/18 00:33:05;;;;;;;;;;;-1.50;99.90;;;;;;5008626;28;20537;-76
2022/12/18 00:35:32;;;;;;;;;;;-1.50;99.90;;;;;;5001647;28;19927;-78
2022/12/18 00:37:57;;;;;;;;;;;-1.50;99.90;;;;;;5005870;28;19917;-76
2022/12/18 00:40:23;;;;;;;;;;;-1.50;99.90;;;;;;5002824;28;20205;-75
2022/12/18 00:42:58;;;;;;;;;;;-1.50;99.90;;;;;;5004971;28;20017;-76
2022/12/18 00:45:25;;;;;;;;;;;-1.60;99.90;;;;;;4997275;28;19914;-75
2022/12/18 00:47:50;;;;;;;;;;;-1.50;99.90;;;;;;5004197;28;19909;-76
2022/12/18 00:50:16;;;;;;;;;;;-1.60;99.90;;;;;;4999877;28;19914;-75
2022/12/18 00:52:42;;;;;;;;;;;-1.60;99.90;;;;;;4995944;28;19920;-76
2022/12/18 00:55:08;;;;;;;;;;;-1.70;99.90;;;;;;5005536;28;19936;-74
2022/12/18 00:57:34;;;;;;;;;;;-1.60;99.90;;;;;;5005246;28;19913;-73
2022/12/18 00:59:59;;;;;;;;;;;-1.50;99.90;;;;;;4991864;28;19910;-73
2022/12/18 01:02:25;;;;;;;;;;;-1.50;99.90;;;;;;5022573;28;20178;-74
2022/12/18 01:04:50;;;;;;;;;;;-1.40;99.90;;;;;;4999874;28;20428;-73
2022/12/18 01:07:16;;;;;;;;;;;-1.30;99.90;;;;;;5002351;28;19913;-74
2022/12/18 01:09:41;;;;;;;;;;;-1.30;99.90;;;;;;5003645;28;20466;-74
2022/12/18 01:12:07;;;;;;;;;;;-1.30;99.90;;;;;;5006962;28;19920;-74
2022/12/18 01:14:32;;;;;;;;;;;-1.20;99.90;;;;;;5013268;28;19909;-75
2022/12/18 01:16:58;;;;;;;;;;;-1.00;99.90;;;;;;5010388;28;19917;-72
2022/12/18 01:19:23;;;;;;;;;;;-1.10;99.90;;;;;;5008320;28;20326;-73
2022/12/18 01:21:49;;;;;;;;;;;-1.10;99.90;;;;;;5013783;28;19919;-72
2022/12/18 01:24:15;;;;;;;;;;;-1.20;99.90;;;;;;5024611;28;19898;-71
2022/12/18 01:26:40;;;;;;;;;;;-1.10;99.90;;;;;;5028849;28;19905;-74
2022/12/18 01:29:06;;;;;;;;;;;-1.00;99.90;;;;;;5028691;28;19910;-72
2022/12/18 01:31:32;;;;;;;;;;;-1.00;99.90;;;;;;5020538;28;20015;-72
2022/12/18 01:34:00;;;;;;;;;;;-1.00;99.90;;;;;;5007305;28;19960;-73
2022/12/18 01:36:27;;;;;;;;;;;-0.90;99.90;;;;;;5005352;28;19909;-73
2022/12/18 01:38:53;;;;;;;;;;;-0.90;99.90;;;;;;5004394;28;19913;-74
2022/12/18 01:41:20;;;;;;;;;;;-1.00;99.90;;;;;;5004086;28;19917;-73
2022/12/18 01:43:45;;;;;;;;;;;-1.10;99.90;;;;;;5009525;28;19914;-73
2022/12/18 01:46:11;;;;;;;;;;;-1.20;99.90;;;;;;5005704;28;20177;-72
2022/12/18 01:48:37;;;;;;;;;;;-1.20;99.90;;;;;;4999860;28;19939;-72
2022/12/18 01:51:04;;;;;;;;;;;-1.20;99.90;;;;;;4995722;28;19920;-73
2022/12/18 01:53:29;;;;;;;;;;;-1.20;99.90;;;;;;4993468;28;19913;-72
2022/12/18 01:55:55;;;;;;;;;;;-1.30;99.90;;;;;;4998670;28;19991;-74
2022/12/18 01:58:30;;;;;;;;;;;-1.20;99.90;;;;;;5012136;28;19910;-74
2022/12/18 02:00:56;;;;;;;;;;;-1.40;99.90;;;;;;5000769;28;19909;-73
2022/12/18 02:03:21;;;;;;;;;;;-1.50;99.90;;;;;;5003282;28;20003;-73
2022/12/18 02:06:00;;;;;;;;;;;-1.50;99.90;;;;;;4995926;28;20433;-73
2022/12/18 02:08:25;;;;;;;;;;;-1.50;99.90;;;;;;5000336;28;19952;-73
2022/12/18 02:10:53;;;;;;;;;;;-1.50;99.90;;;;;;4997539;28;19948;-73
2022/12/18 02:13:19;;;;;;;;;;;-1.60;99.90;;;;;;5003587;28;20166;-72
2022/12/18 02:15:55;;;;;;;;;;;-1.70;99.90;;;;;;5000017;28;19920;-73
2022/12/18 02:18:23;;;;;;;;;;;-1.60;99.90;;;;;;5009061;28;19917;-73
2022/12/18 02:20:53;;;;;;;;;;;-1.60;99.90;;;;;;5005744;28;20021;-71
2022/12/18 02:23:19;;;;;;;;;;;-1.70;99.90;;;;;;4993437;28;19960;-72
2022/12/18 02:26:05;;;;;;;;;;;-1.70;99.90;;;;;;5004435;28;20286;-72
2022/12/18 02:28:33;;;;;;;;;;;-1.80;99.90;;;;;;5005450;28;19913;-72
2022/12/18 02:31:00;;;;;;;;;;;-1.80;99.90;;;;;;4991042;28;20341;-72
2022/12/18 02:33:27;;;;;;;;;;;-1.80;99.90;;;;;;5013474;28;20100;-72
2022/12/18 02:35:53;;;;;;;;;;;-1.90;99.90;;;;;;5002751;28;20066;-72
2022/12/18 02:38:19;;;;;;;;;;;-2.00;99.90;;;;;;5003524;28;19931;-73
2022/12/18 02:40:45;;;;;;;;;;;-2.00;99.90;;;;;;4992001;28;20383;-74
2022/12/18 02:43:13;;;;;;;;;;;-2.00;99.90;;;;;;5006294;28;19917;-72
2022/12/18 02:45:53;;;;;;;;;;;-2.10;99.90;;;;;;4990642;28;19965;-74
2022/12/18 02:48:21;;;;;;;;;;;-2.10;99.90;;;;;;5002242;28;20351;-72
2022/12/18 02:50:54;;;;;;;;;;;-2.20;99.90;;;;;;5004041;28;20438;-73
2022/12/18 02:53:38;;;;;;;;;;;-2.10;99.90;;;;;;5001961;28;19953;-72
2022/12/18 02:56:07;;;;;;;;;;;-2.00;99.90;;;;;;4991423;28;20413;-72
2022/12/18 02:58:38;;;;;;;;;;;-2.10;99.90;;;;;;4991757;28;19924;-74
2022/12/18 03:01:09;;;;;;;;;;;-2.10;99.90;;;;;;4999570;28;20370;-72
2022/12/18 03:03:39;;;;;;;;;;;-2.10;99.90;;;;;;4990972;28;19914;-73
2022/12/18 03:06:15;;;;;;;;;;;-2.20;99.90;;;;;;4995236;28;19956;-73
2022/12/18 03:08:45;;;;;;;;;;;-2.30;99.90;;;;;;4994676;28;19965;-73
2022/12/18 03:11:11;;;;;;;;;;;-2.40;99.90;;;;;;4997858;28;19916;-73
2022/12/18 03:13:46;;;;;;;;;;;-2.40;99.90;;;;;;5001354;28;19914;-75
2022/12/18 03:16:13;;;;;;;;;;;-2.50;99.90;;;;;;4993894;28;20116;-73
2022/12/18 03:18:44;;;;;;;;;;;-2.50;99.90;;;;;;5006377;28;19918;-72
2022/12/18 03:21:11;;;;;;;;;;;-2.50;99.90;;;;;;5008254;28;20012;-73
2022/12/18 03:23:40;;;;;;;;;;;-2.60;99.90;;;;;;5014421;28;19924;-72
2022/12/18 03:26:08;;;;;;;;;;;-2.60;99.90;;;;;;5011963;28;20054;-73
2022/12/18 03:28:36;;;;;;;;;;;-2.60;99.90;;;;;;5016404;28;19913;-72
2022/12/18 03:31:04;;;;;;;;;;;-2.60;99.90;;;;;;5023334;28;19949;-72
2022/12/18 03:33:34;;;;;;;;;;;-2.70;99.90;;;;;;5003294;28;20011;-73
2022/12/18 03:36:00;;;;;;;;;;;-2.70;99.90;;;;;;4999685;28;20530;-73
2022/12/18 03:38:25;;;;;;;;;;;-2.70;99.90;;;;;;5017328;28;19914;-74
2022/12/18 03:41:10;;;;;;;;;;;-2.80;99.90;;;;;;4996575;28;19955;-73
2022/12/18 03:43:43;;;;;;;;;;;-2.80;99.90;;;;;;4999112;28;19957;-72
2022/12/18 03:46:14;;;;;;;;;;;-2.90;99.90;;;;;;4995807;28;20513;-73
2022/12/18 03:48:52;;;;;;;;;;;-2.90;99.90;;;;;;5016884;28;19910;-73
2022/12/18 03:51:22;;;;;;;;;;;-3.00;99.90;;;;;;5001535;28;19913;-72
2022/12/18 03:53:53;;;;;;;;;;;-3.00;99.90;;;;;;5003585;28;19921;-73
2022/12/18 03:56:20;;;;;;;;;;;-3.10;99.90;;;;;;4999676;28;19916;-72
2022/12/18 03:58:47;;;;;;;;;;;-3.00;99.90;;;;;;4991211;28;19910;-71
2022/12/18 04:01:13;;;;;;;;;;;-3.00;99.90;;;;;;4999048;28;19920;-73
2022/12/18 04:03:39;;;;;;;;;;;-3.00;99.90;;;;;;4999602;28;19909;-73
2022/12/18 04:06:05;;;;;;;;;;;-3.00;99.90;;;;;;5015175;28;19913;-73
2022/12/18 04:08:31;;;;;;;;;;;-3.10;99.90;;;;;;5001440;28;19957;-73
2022/12/18 04:10:57;;;;;;;;;;;-3.10;99.90;;;;;;5005073;28;19910;-72
2022/12/18 04:13:29;;;;;;;;;;;-3.20;99.90;;;;;;5001740;28;19917;-72
2022/12/18 04:15:55;;;;;;;;;;;-3.20;99.90;;;;;;4998900;28;20425;-73
2022/12/18 04:18:20;;;;;;;;;;;-3.20;99.90;;;;;;4997395;28;19913;-72
2022/12/18 04:20:46;;;;;;;;;;;-3.20;99.90;;;;;;5000718;28;19925;-73
2022/12/18 04:23:11;;;;;;;;;;;-3.20;99.90;;;;;;5018206;28;19916;-72
2022/12/18 04:25:37;;;;;;;;;;;-3.30;99.90;;;;;;4990363;28;19914;-72
2022/12/18 04:28:02;;;;;;;;;;;-3.30;99.90;;;;;;4994290;28;19914;-73
2022/12/18 04:30:28;;;;;;;;;;;-3.20;99.90;;;;;;4990233;28;20021;-72
2022/12/18 04:32:53;;;;;;;;;;;-3.30;99.90;;;;;;4992005;28;19917;-72
2022/12/18 04:35:19;;;;;;;;;;;-3.30;99.90;;;;;;5001157;28;20626;-73
2022/12/18 04:37:44;;;;;;;;;;;-3.30;99.90;;;;;;5002195;28;20288;-72
2022/12/18 04:40:10;;;;;;;;;;;-3.30;99.90;;;;;;4997177;28;20009;-74
2022/12/18 04:42:36;;;;;;;;;;;-3.50;99.90;;;;;;4988349;28;20019;-73
2022/12/18 04:45:01;;;;;;;;;;;-3.60;99.90;;;;;;4995861;28;19914;-72
2022/12/18 04:47:27;;;;;;;;;;;-3.60;99.90;;;;;;4992241;28;20364;-72
2022/12/18 04:49:52;;;;;;;;;;;-3.60;99.90;;;;;;5009411;28;19913;-72
2022/12/18 04:52:18;;;;;;;;;;;-3.60;99.90;;;;;;5022110;28;19975;-73
2022/12/18 04:54:43;;;;;;;;;;;-3.60;99.90;;;;;;5007316;28;19921;-72
2022/12/18 04:57:09;;;;;;;;;;;-3.60;99.90;;;;;;5005642;28;20413;-72
2022/12/18 04:59:34;;;;;;;;;;;-3.60;99.90;;;;;;5002688;28;19974;-73
2022/12/18 05:02:00;;;;;;;;;;;-3.70;99.90;;;;;;5007272;28;19947;-73
2022/12/18 05:04:25;;;;;;;;;;;-3.70;99.90;;;;;;5004941;28;20329;-74
2022/12/18 05:06:51;;;;;;;;;;;-3.70;99.90;;;;;;4998888;28;20134;-71
2022/12/18 05:09:16;;;;;;;;;;;-3.70;99.90;;;;;;5008943;28;19909;-73
2022/12/18 05:11:42;;;;;;;;;;;-3.70;99.90;;;;;;5001506;28;19917;-71
2022/12/18 05:14:07;;;;;;;;;;;-3.80;99.90;;;;;;4996182;28;20430;-72
2022/12/18 05:16:33;;;;;;;;;;;-3.80;99.90;;;;;;4997895;28;19917;-71
2022/12/18 05:18:59;;;;;;;;;;;-3.80;99.90;;;;;;5004743;28;19921;-72
2022/12/18 05:21:24;;;;;;;;;;;-3.90;99.90;;;;;;5001663;28;19909;-72
2022/12/18 05:23:50;;;;;;;;;;;-3.90;99.90;;;;;;5002832;28;20224;-73
2022/12/18 05:26:17;;;;;;;;;;;-4.00;99.90;;;;;;5004328;28;20004;-73
2022/12/18 05:28:42;;;;;;;;;;;-4.10;99.90;;;;;;5001842;28;19909;-71
2022/12/18 05:31:08;;;;;;;;;;;-4.10;99.90;;;;;;5000696;28;20142;-72
2022/12/18 05:33:34;;;;;;;;;;;-4.10;99.90;;;;;;5006225;28;20367;-72
2022/12/18 05:36:01;;;;;;;;;;;-4.10;99.90;;;;;;4998803;28;19913;-73
2022/12/18 05:38:27;;;;;;;;;;;-4.10;99.90;;;;;;5001192;28;20294;-72
2022/12/18 05:40:52;;;;;;;;;;;-4.10;99.90;;;;;;5006760;28;19917;-72
2022/12/18 05:43:19;;;;;;;;;;;-4.10;99.90;;;;;;5018415;28;19921;-71
2022/12/18 05:45:44;;;;;;;;;;;-4.20;99.90;;;;;;4999454;28;19913;-72
2022/12/18 05:48:13;;;;;;;;;;;-4.20;99.90;;;;;;4999809;28;20013;-73
2022/12/18 05:50:40;;;;;;;;;;;-4.30;99.90;;;;;;5003813;28;20481;-73
2022/12/18 05:53:05;;;;;;;;;;;-4.30;99.90;;;;;;5002794;28;19917;-73
2022/12/18 05:55:35;;;;;;;;;;;-4.30;99.90;;;;;;5016918;28;20195;-74
2022/12/18 05:58:01;;;;;;;;;;;-4.20;99.90;;;;;;5002401;28;20017;-72
2022/12/18 06:00:26;;;;;;;;;;;-4.30;99.90;;;;;;5006445;28;20438;-72
2022/12/18 06:02:52;;;;;;;;;;;-4.30;99.90;;;;;;4996729;28;19914;-72
2022/12/18 06:05:17;;;;;;;;;;;-4.30;99.90;;;;;;4999437;28;19914;-73
2022/12/18 06:07:42;;;;;;;;;;;-4.40;99.90;;;;;;5000138;28;19913;-72
2022/12/18 06:10:08;;;;;;;;;;;-4.30;99.90;;;;;;5001258;28;20457;-73
2022/12/18 06:12:33;;;;;;;;;;;-4.30;99.90;;;;;;5001129;28;20000;-73
2022/12/18 06:14:59;;;;;;;;;;;-4.30;99.90;;;;;;5001079;28;20190;-72
2022/12/18 06:17:29;;;;;;;;;;;-4.30;99.90;;;;;;5002700;28;19921;-74
2022/12/18 06:19:55;;;;;;;;;;;-4.40;99.90;;;;;;4993369;28;20233;-73
2022/12/18 06:22:20;;;;;;;;;;;-4.40;99.90;;;;;;4998874;28;20544;-73
2022/12/18 06:24:46;;;;;;;;;;;-4.40;99.90;;;;;;5011404;28;20398;-72
2022/12/18 06:27:11;;;;;;;;;;;-4.50;99.90;;;;;;4998244;28;19917;-70
2022/12/18 06:29:37;;;;;;;;;;;-4.50;99.90;;;;;;5005880;28;20391;-74
2022/12/18 06:32:02;;;;;;;;;;;-4.40;99.90;;;;;;5005739;28;20419;-71
2022/12/18 06:34:30;;;;;;;;;;;-4.30;99.90;;;;;;5005188;28;19909;-72
2022/12/18 06:36:56;;;;;;;;;;;-4.40;99.90;;;;;;5005376;28;20529;-73
2022/12/18 06:39:21;;;;;;;;;;;-4.50;99.90;;;;;;5006739;28;19921;-73
2022/12/18 06:41:47;;;;;;;;;;;-4.50;99.90;;;;;;4996423;28;19983;-73
2022/12/18 06:44:12;;;;;;;;;;;-4.60;99.90;;;;;;5009395;28;20180;-72
2022/12/18 06:46:38;;;;;;;;;;;-4.60;99.90;;;;;;5005408;28;19914;-73
2022/12/18 06:49:03;;;;;;;;;;;-4.50;99.90;;;;;;5002896;28;19913;-72
2022/12/18 06:51:29;;;;;;;;;;;-4.50;99.90;;;;;;5006557;28;20397;-73
2022/12/18 06:53:54;;;;;;;;;;;-4.50;99.90;;;;;;4999124;28;20564;-73
2022/12/18 06:56:20;;;;;;;;;;;-4.50;99.90;;;;;;5003006;28;19910;-71
2022/12/18 06:58:45;;;;;;;;;;;-4.60;99.90;;;;;;4995713;28;19968;-74
2022/12/18 07:01:11;;;;;;;;;;;-4.60;99.90;;;;;;5000968;28;19920;-73
2022/12/18 07:03:37;;;;;;;;;;;-4.60;99.90;;;;;;5003568;28;19968;-71
2022/12/18 07:06:03;;;;;;;;;;;-4.60;99.90;;;;;;5017117;28;20309;-71
2022/12/18 07:08:30;;;;;;;;;;;-4.60;99.90;;;;;;5001878;28;20398;-73
2022/12/18 07:10:55;;;;;;;;;;;-4.60;99.90;;;;;;5000732;28;19929;-71
2022/12/18 07:13:21;;;;;;;;;;;-4.60;99.90;;;;;;5000543;28;20125;-72
2022/12/18 07:15:46;;;;;;;;;;;-4.60;99.90;;;;;;4998095;28;19910;-72
2022/12/18 07:18:11;;;;;;;;;;;-4.60;99.90;;;;;;5004182;28;19918;-72
2022/12/18 07:20:37;;;;;;;;;;;-4.70;99.90;;;;;;5000443;28;19914;-72
2022/12/18 07:23:06;;;;;;;;;;;-4.70;99.90;;;;;;5003923;28;20347;-73
2022/12/18 07:25:35;;;;;;;;;;;-4.70;99.90;;;;;;4998862;28;20077;-73
2022/12/18 07:28:00;;;;;;;;;;;-4.70;99.90;;;;;;5004714;28;19956;-72
2022/12/18 07:30:26;;;;;;;;;;;-4.70;99.90;;;;;;5000186;28;19964;-74
2022/12/18 07:32:51;;;;;;;;;;;-4.70;99.90;;;;;;5000055;28;20406;-72
2022/12/18 07:35:17;;;;;;;;;;;-4.80;99.90;;;;;;4999834;28;19949;-73
2022/12/18 07:37:42;;;;;;;;;;;-4.80;99.90;;;;;;5000428;28;20326;-73
2022/12/18 07:40:08;;;;;;;;;;;-4.90;99.90;;;;;;4996905;28;19921;-72
2022/12/18 07:42:34;;;;;;;;;;;-4.80;99.90;;;;;;5002927;28;20001;-73
2022/12/18 07:45:00;;;;;;;;;;;-4.80;99.90;;;;;;5002246;28;20123;-72
2022/12/18 07:47:26;;;;;;;;;;;-4.90;99.90;;;;;;5004229;28;20343;-72
2022/12/18 07:49:52;;;;;;;;;;;-4.80;99.90;;;;;;5000102;28;20132;-72
2022/12/18 07:52:17;;;;;;;;;;;-4.80;99.90;;;;;;5002564;28;19917;-73
2022/12/18 07:54:43;;;;;;;;;;;-4.90;99.90;;;;;;5000019;28;19921;-72
2022/12/18 07:57:08;;;;;;;;;;;-4.80;99.90;;;;;;5005183;28;19913;-72
2022/12/18 07:59:34;;;;;;;;;;;-4.80;99.90;;;;;;5003383;28;19960;-71
2022/12/18 08:02:00;;;;;;;;;;;-4.80;99.90;;;;;;5020281;28;19967;-73
2022/12/18 08:04:25;;;;;;;;;;;-4.80;99.90;;;;;;5003399;28;19975;-73
2022/12/18 08:06:51;;;;;;;;;;;-4.70;99.90;;;;;;5004470;28;20356;-74
2022/12/18 08:09:17;;;;;;;;;;;-4.70;99.90;;;;;;5003468;28;19913;-73
2022/12/18 08:11:42;;;;;;;;;;;-4.70;99.90;;;;;;5002665;28;20378;-73
2022/12/18 08:14:08;;;;;;;;;;;-4.60;99.90;;;;;;5003202;28;20000;-72
2022/12/18 08:16:34;;;;;;;;;;;-4.60;99.90;;;;;;5002206;28;19917;-72
2022/12/18 08:18:59;;;;;;;;;;;-4.60;99.90;;;;;;5008021;28;19918;-72
2022/12/18 08:21:26;;;;;;;;;;;-4.60;99.90;;;;;;5008218;28;20326;-75
2022/12/18 08:23:53;;;;;;;;;;;-4.50;99.90;;;;;;5017399;28;20064;-75
2022/12/18 08:26:19;;;;;;;;;;;-4.50;99.90;;;;;;5024677;28;19917;-73
2022/12/18 08:28:45;;;;;;;;;;;-4.40;99.90;;;;;;5001628;28;19914;-74
2022/12/18 08:31:10;;;;;;;;;;;-4.40;99.90;;;;;;5016375;28;20364;-75
2022/12/18 08:33:37;;;;;;;;;;;-4.40;99.90;;;;;;5013273;28;19920;-73
2022/12/18 08:36:03;;;;;;;;;;;-4.30;99.90;;;;;;5010877;28;20311;-75
2022/12/18 08:38:29;;;;;;;;;;;-4.30;99.90;;;;;;5011032;28;19960;-74
2022/12/18 08:41:00;;;;;;;;;;;-4.30;99.90;;;;;;5013258;28;19914;-75
2022/12/18 08:46:10;;;;;;;;;;;-4.30;99.90;;;;;;5012050;28;19933;-75
2022/12/18 08:48:36;;;;;;;;;;;-4.20;99.90;;;;;;5010101;28;19914;-74
2022/12/18 08:51:01;;;;;;;;;;;-4.20;99.90;;;;;;5011068;28;20433;-74
2022/12/18 08:53:27;;;;;;;;;;;-4.10;99.90;;;;;;5007010;28;20202;-74
2022/12/18 08:55:53;;;;;;;;;;;-4.10;99.90;;;;;;5007170;28;20453;-74
2022/12/18 08:58:18;;;;;;;;;;;-4.00;99.90;;;;;;5008413;28;19914;-74
2022/12/18 09:00:44;;;;;;;;;;;-3.90;99.90;;;;;;5006800;28;19916;-74
2022/12/18 09:03:11;;;;;;;;;;;-3.80;99.90;;;;;;5021363;28;19924;-74
2022/12/18 09:05:36;;;;;;;;;;;-3.70;99.90;;;;;;5002682;28;20387;-74
2022/12/18 09:08:02;;;;;;;;;;;-3.60;99.90;;;;;;5005580;28;19948;-74
2022/12/18 09:10:27;;;;;;;;;;;-3.60;99.90;;;;;;5005005;28;19909;-75
2022/12/18 09:12:53;;;;;;;;;;;-3.50;99.90;;;;;;5017626;28;19918;-74
2022/12/18 09:15:18;;;;;;;;;;;-3.50;99.90;;;;;;5006114;28;20307;-75
2022/12/18 09:17:44;;;;;;;;;;;-3.40;99.90;;;;;;5002770;28;20016;-74
2022/12/18 09:20:09;;;;;;;;;;;-3.40;99.90;;;;;;5004292;28;20510;-73
2022/12/18 09:22:35;;;;;;;;;;;-3.30;99.90;;;;;;5007778;28;19910;-73
2022/12/18 09:25:00;;;;;;;;;;;-3.40;99.90;;;;;;5004393;28;19924;-76
2022/12/18 09:27:26;;;;;;;;;;;-3.40;99.90;;;;;;5004393;28;19914;-74
2022/12/18 09:29:52;;;;;;;;;;;-3.40;99.90;;;;;;4998983;28;19921;-74
2022/12/18 09:32:17;;;;;;;;;;;-3.40;99.90;;;;;;5002940;28;19913;-74
2022/12/18 09:34:43;;;;;;;;;;;-3.40;99.90;;;;;;5004637;28;19940;-73
2022/12/18 09:37:08;;;;;;;;;;;-3.40;99.90;;;;;;5004059;28;19952;-75
2022/12/18 09:39:37;;;;;;;;;;;-3.40;99.90;;;;;;4995904;28;19917;-75
2022/12/18 09:42:02;;;;;;;;;;;-3.40;99.90;;;;;;5008113;28;20063;-75
2022/12/18 09:44:28;;;;;;;;;;;-3.20;99.90;;;;;;5017760;28;20003;-74
2022/12/18 09:47:09;;;;;;;;;;;-3.20;99.90;;;;;;5012039;28;19914;-74
2022/12/18 09:49:36;;;;;;;;;;;-3.20;99.90;;;;;;4997866;28;19917;-74
2022/12/18 09:52:04;;;;;;;;;;;-3.10;99.90;;;;;;5001196;28;20056;-75
2022/12/18 09:54:33;;;;;;;;;;;-3.00;99.90;;;;;;5002873;28;19921;-75
2022/12/18 09:56:58;;;;;;;;;;;-3.00;99.90;;;;;;4997851;28;19917;-75
2022/12/18 09:59:27;;;;;;;;;;;-3.00;99.90;;;;;;4999510;28;19916;-74
2022/12/18 10:01:52;;;;;;;;;;;-3.00;99.90;;;;;;5007089;28;20376;-73
2022/12/18 10:04:18;;;;;;;;;;;-3.00;99.90;;;;;;4997789;28;19992;-74
2022/12/18 10:07:02;;;;;;;;;;;-3.00;99.90;;;;;;5005108;28;19914;-73
2022/12/18 10:09:33;;;;;;;;;;;-2.90;99.90;;;;;;4999800;28;19909;-74
2022/12/18 10:12:07;;;;;;;;;;;-2.90;99.90;;;;;;4995277;28;19913;-74
2022/12/18 10:14:36;;;;;;;;;;;-2.80;99.90;;;;;;5007017;28;19921;-74
2022/12/18 10:17:04;;;;;;;;;;;-2.80;99.90;;;;;;4999338;28;19921;-74
2022/12/18 10:19:59;;;;;;;;;;;-2.80;99.90;;;;;;5012500;28;20317;-74
2022/12/18 10:22:34;;;;;;;;;;;-2.80;99.90;;;;;;4994727;28;20178;-73
2022/12/18 10:25:23;;;;;;;;;;;-2.70;99.90;;;;;;5004320;28;19909;-73
2022/12/18 10:27:51;;;;;;;;;;;-2.70;99.90;;;;;;5006489;28;19987;-74
2022/12/18 10:30:18;;;;;;;;;;;-2.60;99.90;;;;;;5004344;28;20417;-74
2022/12/18 10:32:44;;;;;;;;;;;-2.60;99.90;;;;;;5005004;28;19965;-75
2022/12/18 10:35:20;;;;;;;;;;;-2.60;99.90;;;;;;5002541;28;19956;-73
2022/12/18 10:37:59;;;;;;;;;;;-2.50;99.90;;;;;;4998224;28;20354;-74
2022/12/18 10:40:25;;;;;;;;;;;-2.50;99.90;;;;;;5006979;28;19910;-76
2022/12/18 10:43:03;;;;;;;;;;;-2.40;99.90;;;;;;4992805;28;20178;-73
2022/12/18 10:45:29;;;;;;;;;;;-2.50;99.90;;;;;;5015322;28;19918;-74
2022/12/18 10:47:54;;;;;;;;;;;-2.50;99.90;;;;;;4998681;28;19918;-73
2022/12/18 10:50:29;;;;;;;;;;;-2.50;99.90;;;;;;5001389;28;19931;-73
2022/12/18 10:52:59;;;;;;;;;;;-2.50;99.90;;;;;;5006255;28;19929;-74
2022/12/18 10:55:30;;;;;;;;;;;-2.50;99.90;;;;;;5005188;28;19914;-72
2022/12/18 10:58:12;;;;;;;;;;;-2.40;99.90;;;;;;5008103;28;19924;-72
2022/12/18 11:00:38;;;;;;;;;;;-2.50;99.90;;;;;;5007348;28;20383;-73
2022/12/18 11:03:23;;;;;;;;;;;-2.50;99.90;;;;;;5006302;28;19921;-72
2022/12/18 11:06:00;;;;;;;;;;;-2.40;99.90;;;;;;4999493;28;19928;-74
2022/12/18 11:08:26;;;;;;;;;;;-2.30;99.90;;;;;;5003295;28;20009;-74
2022/12/18 11:10:51;;;;;;;;;;;-2.30;99.90;;;;;;5000608;28;19937;-73
2022/12/18 11:13:18;;;;;;;;;;;-2.20;99.90;;;;;;5003288;28;19997;-74
2022/12/18 11:15:44;;;;;;;;;;;-2.20;99.90;;;;;;5001551;28;19917;-73
2022/12/18 11:18:17;;;;;;;;;;;-2.30;99.90;;;;;;5003758;28;19947;-72
2022/12/18 11:20:49;;;;;;;;;;;-2.20;99.90;;;;;;5001110;28;20390;-72
2022/12/18 11:23:15;;;;;;;;;;;-2.10;99.90;;;;;;5004499;28;19914;-77
2022/12/18 11:25:50;;;;;;;;;;;-2.00;99.90;;;;;;5006237;28;19924;-76
2022/12/18 11:28:48;;;;;;;;;;;-2.00;99.90;;;;;;5021310;28;20406;-74
2022/12/18 11:31:32;;;;;;;;;;;-1.90;99.90;;;;;;4973745;28;19924;-74
2022/12/18 11:34:00;;;;;;;;;;;-1.90;99.90;;;;;;5002864;28;20013;-73
2022/12/18 11:36:28;;;;;;;;;;;-1.90;99.90;;;;;;4998905;28;19913;-74
2022/12/18 11:38:55;;;;;;;;;;;-1.90;99.90;;;;;;5001100;28;19960;-73
2022/12/18 11:44:13;;;;;;;;;;;-1.90;99.90;;;;;;5001920;28;19925;-74
2022/12/18 11:47:17;;;;;;;;;;;-1.90;99.90;;;;;;5001068;28;19910;-76
2022/12/18 11:49:45;;;;;;;;;;;-1.90;99.90;;;;;;4974426;28;19910;-75
2022/12/18 11:52:16;;;;;;;;;;;-1.90;99.90;;;;;;4974374;28;20358;-74
2022/12/18 11:54:41;;;;;;;;;;;-1.90;99.90;;;;;;4986405;28;19913;-75
2022/12/18 11:57:26;;;;;;;;;;;-1.90;99.90;;;;;;5014868;28;19964;-75
2022/12/18 12:00:24;;;;;;;;;;;-1.80;99.90;;;;;;5014890;28;19936;-75
2022/12/18 12:02:49;;;;;;;;;;;-1.80;99.90;;;;;;4981076;28;19977;-75
2022/12/18 12:05:18;;;;;;;;;;;-1.80;99.90;;;;;;5004620;28;20426;-78
2022/12/18 12:07:51;;;;;;;;;;;-1.70;99.90;;;;;;5009857;28;19925;-76
2022/12/18 12:10:25;;;;;;;;;;;-1.70;99.90;;;;;;5010732;28;20184;-77
2022/12/18 12:12:54;;;;;;;;;;;-1.80;99.90;;;;;;5010540;28;19917;-77
2022/12/18 12:15:38;;;;;;;;;;;-1.70;99.90;;;;;;5008818;28;20414;-77
2022/12/18 12:18:23;;;;;;;;;;;-1.70;99.90;;;;;;5001276;28;19928;-77
2022/12/18 12:20:50;;;;;;;;;;;-1.70;99.90;;;;;;5001322;28;19917;-75
2022/12/18 12:23:34;;;;;;;;;;;-1.60;99.90;;;;;;4994377;28;19932;-73
2022/12/18 12:26:05;;;;;;;;;;;-1.50;99.90;;;;;;4996679;28;20307;-76
2022/12/18 12:28:37;;;;;;;;;;;-1.50;99.90;;;;;;5002627;28;19945;-74
2022/12/18 12:31:28;;;;;;;;;;;-1.40;99.90;;;;;;5003053;28;19996;-76
2022/12/18 12:34:13;;;;;;;;;;;-1.40;99.90;;;;;;4999276;28;19917;-75
2022/12/18 12:36:58;;;;;;;;;;;-1.40;99.90;;;;;;4996269;28;20013;-75
2022/12/18 12:39:28;;;;;;;;;;;-1.40;99.90;;;;;;4996250;28;20481;-76
2022/12/18 12:44:42;;;;;;;;;;;-1.40;99.90;;;;;;5001551;28;19967;-74
2022/12/18 12:47:20;;;;;;;;;;;-1.40;99.90;;;;;;5003099;28;19953;-75
2022/12/18 12:49:47;;;;;;;;;;;-1.30;99.90;;;;;;5002512;28;19910;-74
2022/12/18 12:52:13;;;;;;;;;;;-1.30;99.90;;;;;;5009798;28;19920;-73
2022/12/18 12:54:38;;;;;;;;;;;-1.30;99.90;;;;;;5005024;28;19914;-74
2022/12/18 12:57:04;;;;;;;;;;;-1.30;99.90;;;;;;4992679;28;20005;-74
2022/12/18 12:59:46;;;;;;;;;;;-1.20;99.90;;;;;;5021858;28;19909;-74
2022/12/18 13:02:22;;;;;;;;;;;-1.30;99.90;;;;;;5006501;28;19910;-73
2022/12/18 13:05:01;;;;;;;;;;;-1.20;99.90;;;;;;4999960;28;19914;-74
2022/12/18 13:07:33;;;;;;;;;;;-1.10;99.90;;;;;;5013397;28;19963;-74
2022/12/18 13:10:14;;;;;;;;;;;-1.10;99.90;;;;;;4998640;28;19944;-73
2022/12/18 13:12:59;;;;;;;;;;;-1.10;99.90;;;;;;5015350;28;19913;-75
2022/12/18 13:15:31;;;;;;;;;;;-1.00;99.90;;;;;;5003538;28;20002;-75
2022/12/18 13:18:08;;;;;;;;;;;-1.00;99.90;;;;;;5000917;28;19918;-74
2022/12/18 13:20:39;;;;;;;;;;;-1.00;99.90;;;;;;5014201;28;19913;-75
2022/12/18 13:23:23;;;;;;;;;;;-1.10;99.90;;;;;;5012977;28;19913;-74
2022/12/18 13:25:50;;;;;;;;;;;-1.00;99.90;;;;;;5013842;28;19922;-74
2022/12/18 13:28:16;;;;;;;;;;;-1.00;99.90;;;;;;5024726;28;19925;-74
2022/12/18 13:30:45;;;;;;;;;;;-1.00;99.90;;;;;;5018160;28;19910;-73
2022/12/18 13:33:13;;;;;;;;;;;-1.00;99.90;;;;;;5011169;28;20205;-75
2022/12/18 13:35:40;;;;;;;;;;;-1.00;99.90;;;;;;5001229;28;19913;-74
2022/12/18 13:38:24;;;;;;;;;;;-0.90;99.90;;;;;;5005584;28;20223;-73
2022/12/18 13:40:54;;;;;;;;;;;-1.00;99.90;;;;;;5009479;28;19920;-74
2022/12/18 13:43:19;;;;;;;;;;;-1.00;99.90;;;;;;5009038;28;19913;-74
2022/12/18 13:45:47;;;;;;;;;;;-1.00;99.90;;;;;;5003594;28;19909;-74
2022/12/18 13:48:21;;;;;;;;;;;-0.90;99.90;;;;;;4999138;28;20302;-73
2022/12/18 13:50:52;;;;;;;;;;;-0.90;99.90;;;;;;5007274;28;20000;-74
2022/12/18 13:53:23;;;;;;;;;;;-0.90;99.90;;;;;;4998847;28;19913;-75
2022/12/18 13:55:49;;;;;;;;;;;-0.90;99.90;;;;;;5004271;28;19917;-75
2022/12/18 13:58:14;;;;;;;;;;;-0.80;99.90;;;;;;5004930;28;20004;-74
2022/12/18 14:00:43;;;;;;;;;;;-0.90;99.90;;;;;;4996405;28;20414;-74
2022/12/18 14:03:26;;;;;;;;;;;-0.90;99.90;;;;;;5002601;28;19909;-75
2022/12/18 14:05:56;;;;;;;;;;;-0.80;99.90;;;;;;5007483;28;19980;-75
2022/12/18 14:08:26;;;;;;;;;;;-0.90;99.90;;;;;;5009817;28;19909;-77
2022/12/18 14:10:52;;;;;;;;;;;-0.80;99.90;;;;;;5012288;28;19984;-76
2022/12/18 14:13:26;;;;;;;;;;;-0.80;99.90;;;;;;4998658;28;19953;-74
2022/12/18 14:15:52;;;;;;;;;;;-0.70;99.90;;;;;;5004986;28;19980;-74
2022/12/18 14:18:24;;;;;;;;;;;-0.80;99.90;;;;;;5016912;28;19917;-75
2022/12/18 14:20:51;;;;;;;;;;;-0.80;99.90;;;;;;5001774;28;19913;-73
2022/12/18 14:23:27;;;;;;;;;;;-0.80;99.90;;;;;;4997517;28;20003;-74
2022/12/18 14:25:53;;;;;;;;;;;-0.70;99.90;;;;;;4997225;28;20314;-76
2022/12/18 14:28:18;;;;;;;;;;;-0.70;99.90;;;;;;5001679;28;19918;-75
2022/12/18 14:30:45;;;;;;;;;;;-0.70;99.90;;;;;;4999619;28;20132;-73
2022/12/18 14:33:10;;;;;;;;;;;-0.70;99.90;;;;;;5020556;28;19921;-75